sensor_id;sensor_type;location;lat;lon;timestamp;pressure;altitude;pressure_sealevel;temperature;humidity
51195;BME280;37259;49.972;19.850;2023-03-20T00:00:22;98760;;;6.5;66.5
51195;BME280;37259;49.972;19.850;2023-03-20T00:01:18;98760;;;6.5;66.5
51195;BME280;37259;49.972;19.850;2023-03-20T00:02:19;98760;;;6.5;66.5
51195;BME280;37259;49.972;19.850;2023-03-20T00:03:18;98760;;;6.5;66.5
51195;BME280;37259;49.972;19.850;2023-03-20T00:04:18;98760;;;6.5;66.5
51195;BME280;37259;49.972;19.850;2023-03-20T00:05:18;98760;;;6.5;66.5
51195;BME280;37259;49.972;19.850;2023-03-20T00:06:19;98760;;;6.4;66.4
51195;BME280;37259;49.972;19.850;2023-03-20T00:07:18;98760;;;6.4;66.4
51195;BME280;37259;49.972;19.850;2023-03-20T00:08:18;98760;;;6.4;66.4
51195;BME280;37259;49.972;19.850;2023-03-20T00:09:18;98760;;;6.3;66.2
51195;BME280;37259;49.972;19.850;2023-03-20T00:10:18;98760;;;6.3;66.2
51195;BME280;37259;49.972;19.850;2023-03-20T00:11:23;98760;;;6.3;66.2
51195;BME280;37259;49.972;19.850;2023-03-20T00:12:20;98760;;;6.2;66.8
51195;BME280;37259;49.972;19.850;2023-03-20T00:13:19;98760;;;6.2;67
51195;BME280;37259;49.972;19.850;2023-03-20T00:14:18;98760;;;6.2;67
51195;BME280;37259;49.972;19.850;2023-03-20T00:15:26;98760;;;6.2;67.1
51195;BME280;37259;49.972;19.850;2023-03-20T00:16:18;98760;;;6.2;67.1
51195;BME280;37259;49.972;19.850;2023-03-20T00:17:18;98760;;;6.2;67.1
51195;BME280;37259;49.972;19.850;2023-03-20T00:18:19;98760;;;6.1;67.1
51195;BME280;37259;49.972;19.850;2023-03-20T00:19:19;98760;;;6.1;67
51195;BME280;37259;49.972;19.850;2023-03-20T00:20:18;98760;;;6.1;67
51195;BME280;37259;49.972;19.850;2023-03-20T00:21:18;98760;;;6.1;66.9
51195;BME280;37259;49.972;19.850;2023-03-20T00:22:18;98760;;;6.1;67
51195;BME280;37259;49.972;19.850;2023-03-20T00:23:18;98760;;;6.1;67
51195;BME280;37259;49.972;19.850;2023-03-20T00:24:18;98760;;;6;67.1
51195;BME280;37259;49.972;19.850;2023-03-20T00:25:19;98760;;;6;67.1
51195;BME280;37259;49.972;19.850;2023-03-20T00:26:18;98760;;;6;67
51195;BME280;37259;49.972;19.850;2023-03-20T00:27:18;98760;;;6;67
51195;BME280;37259;49.972;19.850;2023-03-20T00:28:27;98750;;;6;67.1
51195;BME280;37259;49.972;19.850;2023-03-20T00:29:19;98750;;;6;67.1
51195;BME280;37259;49.972;19.850;2023-03-20T00:30:21;98750;;;6;67.1
51195;BME280;37259;49.972;19.850;2023-03-20T00:31:21;98750;;;5.9;67.2
51195;BME280;37259;49.972;19.850;2023-03-20T00:32:18;98750;;;5.9;67.2
51195;BME280;37259;49.972;19.850;2023-03-20T00:33:18;98750;;;5.9;67.1
51195;BME280;37259;49.972;19.850;2023-03-20T00:34:19;98750;;;5.9;67.1
51195;BME280;37259;49.972;19.850;2023-03-20T00:35:19;98750;;;5.9;67.1
51195;BME280;37259;49.972;19.850;2023-03-20T00:36:18;98750;;;5.9;67.1
51195;BME280;37259;49.972;19.850;2023-03-20T00:37:18;98740;;;5.9;67.1
51195;BME280;37259;49.972;19.850;2023-03-20T00:38:18;98740;;;5.9;67.1
51195;BME280;37259;49.972;19.850;2023-03-20T00:39:18;98740;;;5.9;67.2
51195;BME280;37259;49.972;19.850;2023-03-20T00:40:18;98740;;;5.9;67.2
51195;BME280;37259;49.972;19.850;2023-03-20T00:41:19;98740;;;5.9;67.5
51195;BME280;37259;49.972;19.850;2023-03-20T00:42:18;98740;;;5.9;67.4
51195;BME280;37259;49.972;19.850;2023-03-20T00:43:18;98740;;;5.9;67.4
51195;BME280;37259;49.972;19.850;2023-03-20T00:44:19;98740;;;5.9;67.3
51195;BME280;37259;49.972;19.850;2023-03-20T00:45:19;98740;;;5.9;67.3
51195;BME280;37259;49.972;19.850;2023-03-20T00:46:18;98740;;;5.9;67.4
51195;BME280;37259;49.972;19.850;2023-03-20T00:47:19;98740;;;5.9;67.4
51195;BME280;37259;49.972;19.850;2023-03-20T00:48:18;98740;;;5.9;67.3
51195;BME280;37259;49.972;19.850;2023-03-20T00:49:18;98740;;;5.9;67.3
51195;BME280;37259;49.972;19.850;2023-03-20T00:50:19;98740;;;5.9;67.3
51195;BME280;37259;49.972;19.850;2023-03-20T00:51:18;98740;;;5.9;67.3
51195;BME280;37259;49.972;19.850;2023-03-20T00:52:18;98740;;;5.9;67.3
51195;BME280;37259;49.972;19.850;2023-03-20T00:53:18;98740;;;5.9;67.3
51195;BME280;37259;49.972;19.850;2023-03-20T00:54:18;98730;;;5.9;67.2
51195;BME280;37259;49.972;19.850;2023-03-20T00:55:19;98740;;;5.9;67.1
51195;BME280;37259;49.972;19.850;2023-03-20T00:56:25;98740;;;5.9;67.1
51195;BME280;37259;49.972;19.850;2023-03-20T00:57:19;98740;;;5.9;67
51195;BME280;37259;49.972;19.850;2023-03-20T00:58:18;98740;;;5.9;67
51195;BME280;37259;49.972;19.850;2023-03-20T00:59:19;98740;;;5.9;67
51195;BME280;37259;49.972;19.850;2023-03-20T01:00:19;98740;;;5.8;67
51195;BME280;37259;49.972;19.850;2023-03-20T01:01:18;98740;;;5.8;67
51195;BME280;37259;49.972;19.850;2023-03-20T01:02:18;98740;;;5.8;67
51195;BME280;37259;49.972;19.850;2023-03-20T01:03:18;98740;;;5.8;67.1
51195;BME280;37259;49.972;19.850;2023-03-20T01:04:18;98740;;;5.8;67.1
51195;BME280;37259;49.972;19.850;2023-03-20T01:05:18;98740;;;5.8;67.2
51195;BME280;37259;49.972;19.850;2023-03-20T01:06:18;98740;;;5.7;67.3
51195;BME280;37259;49.972;19.850;2023-03-20T01:07:18;98740;;;5.7;67.3
51195;BME280;37259;49.972;19.850;2023-03-20T01:08:18;98740;;;5.7;67.6
51195;BME280;37259;49.972;19.850;2023-03-20T01:09:18;98740;;;5.7;67.6
51195;BME280;37259;49.972;19.850;2023-03-20T01:10:18;98730;;;5.7;68
51195;BME280;37259;49.972;19.850;2023-03-20T01:11:19;98730;;;5.7;68.1
51195;BME280;37259;49.972;19.850;2023-03-20T01:12:18;98730;;;5.7;68
51195;BME280;37259;49.972;19.850;2023-03-20T01:13:19;98730;;;5.7;68
51195;BME280;37259;49.972;19.850;2023-03-20T01:14:18;98730;;;5.6;67.8
51195;BME280;37259;49.972;19.850;2023-03-20T01:15:19;98730;;;5.6;67.6
51195;BME280;37259;49.972;19.850;2023-03-20T01:16:19;98730;;;5.6;67.6
51195;BME280;37259;49.972;19.850;2023-03-20T01:17:19;98730;;;5.6;67.5
51195;BME280;37259;49.972;19.850;2023-03-20T01:18:18;98730;;;5.6;67.5
51195;BME280;37259;49.972;19.850;2023-03-20T01:19:18;98730;;;5.5;67.7
51195;BME280;37259;49.972;19.850;2023-03-20T01:20:20;98730;;;5.5;67.7
51195;BME280;37259;49.972;19.850;2023-03-20T01:21:18;98730;;;5.5;67.8
51195;BME280;37259;49.972;19.850;2023-03-20T01:22:18;98730;;;5.5;67.8
51195;BME280;37259;49.972;19.850;2023-03-20T01:23:18;98730;;;5.4;68
51195;BME280;37259;49.972;19.850;2023-03-20T01:24:18;98730;;;5.4;68
51195;BME280;37259;49.972;19.850;2023-03-20T01:25:18;98730;;;5.4;67.9
51195;BME280;37259;49.972;19.850;2023-03-20T01:26:20;98730;;;5.4;67.9
51195;BME280;37259;49.972;19.850;2023-03-20T01:27:18;98730;;;5.3;67.9
51195;BME280;37259;49.972;19.850;2023-03-20T01:28:18;98730;;;5.3;67.9
51195;BME280;37259;49.972;19.850;2023-03-20T01:29:18;98730;;;5.3;67.9
51195;BME280;37259;49.972;19.850;2023-03-20T01:30:20;98730;;;5.3;67.9
51195;BME280;37259;49.972;19.850;2023-03-20T01:31:18;98730;;;5.3;67.9
51195;BME280;37259;49.972;19.850;2023-03-20T01:32:18;98730;;;5.3;67.9
51195;BME280;37259;49.972;19.850;2023-03-20T01:33:18;98730;;;5.2;68
51195;BME280;37259;49.972;19.850;2023-03-20T01:34:18;98730;;;5.2;68
51195;BME280;37259;49.972;19.850;2023-03-20T01:35:19;98730;;;5.1;68
51195;BME280;37259;49.972;19.850;2023-03-20T01:36:19;98730;;;5.1;68
51195;BME280;37259;49.972;19.850;2023-03-20T01:37:21;98730;;;5.1;67.9
51195;BME280;37259;49.972;19.850;2023-03-20T01:38:19;98730;;;5.1;67.9
51195;BME280;37259;49.972;19.850;2023-03-20T01:39:18;98730;;;5.1;68.2
51195;BME280;37259;49.972;19.850;2023-03-20T01:40:22;98730;;;5.1;68.2
51195;BME280;37259;49.972;19.850;2023-03-20T01:41:18;98730;;;5;68.1
51195;BME280;37259;49.972;19.850;2023-03-20T01:42:18;98730;;;5;68.1
51195;BME280;37259;49.972;19.850;2023-03-20T01:43:19;98730;;;5;68.4
51195;BME280;37259;49.972;19.850;2023-03-20T01:44:19;98730;;;5;68.4
51195;BME280;37259;49.972;19.850;2023-03-20T01:45:19;98730;;;4.9;68.6
51195;BME280;37259;49.972;19.850;2023-03-20T01:46:19;98730;;;4.9;68.6
51195;BME280;37259;49.972;19.850;2023-03-20T01:47:19;98730;;;4.9;69
51195;BME280;37259;49.972;19.850;2023-03-20T01:48:18;98740;;;4.9;69
51195;BME280;37259;49.972;19.850;2023-03-20T01:50:20;98730;;;4.8;69.1
51195;BME280;37259;49.972;19.850;2023-03-20T01:50:23;98740;;;4.9;69
51195;BME280;37259;49.972;19.850;2023-03-20T01:51:19;98730;;;4.8;69.1
51195;BME280;37259;49.972;19.850;2023-03-20T01:52:18;98730;;;4.8;69.1
51195;BME280;37259;49.972;19.850;2023-03-20T01:53:19;98730;;;4.8;69.1
51195;BME280;37259;49.972;19.850;2023-03-20T01:54:19;98730;;;4.8;69.3
51195;BME280;37259;49.972;19.850;2023-03-20T01:55:18;98730;;;4.8;69.3
51195;BME280;37259;49.972;19.850;2023-03-20T01:56:18;98720;;;4.7;69.4
51195;BME280;37259;49.972;19.850;2023-03-20T01:57:19;98730;;;4.7;69.6
51195;BME280;37259;49.972;19.850;2023-03-20T01:58:18;98730;;;4.7;69.6
51195;BME280;37259;49.972;19.850;2023-03-20T01:59:19;98730;;;4.7;70
51195;BME280;37259;49.972;19.850;2023-03-20T02:00:18;98730;;;4.7;70
51195;BME280;37259;49.972;19.850;2023-03-20T02:01:18;98730;;;4.7;70
51195;BME280;37259;49.972;19.850;2023-03-20T02:02:20;98730;;;4.6;70.7
51195;BME280;37259;49.972;19.850;2023-03-20T02:03:18;98730;;;4.6;70.8
51195;BME280;37259;49.972;19.850;2023-03-20T02:04:18;98730;;;4.6;70.7
51195;BME280;37259;49.972;19.850;2023-03-20T02:05:19;98730;;;4.6;70.7
51195;BME280;37259;49.972;19.850;2023-03-20T02:06:18;98730;;;4.6;70.7
51195;BME280;37259;49.972;19.850;2023-03-20T02:07:19;98730;;;4.6;70.8
51195;BME280;37259;49.972;19.850;2023-03-20T02:08:20;98730;;;4.6;70.8
51195;BME280;37259;49.972;19.850;2023-03-20T02:09:18;98730;;;4.6;70.9
51195;BME280;37259;49.972;19.850;2023-03-20T02:10:18;98730;;;4.5;70.9
51195;BME280;37259;49.972;19.850;2023-03-20T02:11:19;98730;;;4.5;70.9
51195;BME280;37259;49.972;19.850;2023-03-20T02:12:18;98730;;;4.5;70.9
51195;BME280;37259;49.972;19.850;2023-03-20T02:13:18;98730;;;4.5;70.8
51195;BME280;37259;49.972;19.850;2023-03-20T02:14:18;98730;;;4.5;70.8
51195;BME280;37259;49.972;19.850;2023-03-20T02:15:18;98730;;;4.5;70.8
51195;BME280;37259;49.972;19.850;2023-03-20T02:16:18;98730;;;4.5;70.8
51195;BME280;37259;49.972;19.850;2023-03-20T02:17:18;98730;;;4.5;70.9
51195;BME280;37259;49.972;19.850;2023-03-20T02:18:18;98730;;;4.5;70.9
51195;BME280;37259;49.972;19.850;2023-03-20T02:19:19;98730;;;4.5;71.1
51195;BME280;37259;49.972;19.850;2023-03-20T02:20:21;98730;;;4.5;71.1
51195;BME280;37259;49.972;19.850;2023-03-20T02:21:27;98730;;;4.5;71.1
51195;BME280;37259;49.972;19.850;2023-03-20T02:22:23;98730;;;4.5;71.2
51195;BME280;37259;49.972;19.850;2023-03-20T02:23:52;98730;;;4.5;71.2
51195;BME280;37259;49.972;19.850;2023-03-20T02:26:28;98740;;;4.5;71.2
51195;BME280;37259;49.972;19.850;2023-03-20T02:27:20;98740;;;4.5;71.3
51195;BME280;37259;49.972;19.850;2023-03-20T02:28:26;98740;;;4.5;71.3
51195;BME280;37259;49.972;19.850;2023-03-20T02:29:23;98740;;;4.5;71.8
51195;BME280;37259;49.972;19.850;2023-03-20T02:30:30;98740;;;4.5;71.8
51195;BME280;37259;49.972;19.850;2023-03-20T02:31:24;98740;;;4.5;72
51195;BME280;37259;49.972;19.850;2023-03-20T02:32:24;98740;;;4.5;72.2
51195;BME280;37259;49.972;19.850;2023-03-20T02:33:24;98740;;;4.5;72.2
51195;BME280;37259;49.972;19.850;2023-03-20T02:34:23;98740;;;4.4;72.8
51195;BME280;37259;49.972;19.850;2023-03-20T02:35:22;98740;;;4.4;72.8
51195;BME280;37259;49.972;19.850;2023-03-20T02:36:23;98740;;;4.4;73.1
51195;BME280;37259;49.972;19.850;2023-03-20T02:37:22;98740;;;4.4;73.1
51195;BME280;37259;49.972;19.850;2023-03-20T02:38:22;98740;;;4.4;73
51195;BME280;37259;49.972;19.850;2023-03-20T02:39:20;98740;;;4.4;72.9
51195;BME280;37259;49.972;19.850;2023-03-20T02:40:20;98740;;;4.4;72.9
51195;BME280;37259;49.972;19.850;2023-03-20T02:41:20;98740;;;4.4;72.8
51195;BME280;37259;49.972;19.850;2023-03-20T02:42:19;98740;;;4.4;72.8
51195;BME280;37259;49.972;19.850;2023-03-20T02:43:19;98740;;;4.4;72.8
51195;BME280;37259;49.972;19.850;2023-03-20T02:44:18;98730;;;4.4;72.7
51195;BME280;37259;49.972;19.850;2023-03-20T02:45:19;98730;;;4.4;72.7
51195;BME280;37259;49.972;19.850;2023-03-20T02:46:19;98730;;;4.4;72.7
51195;BME280;37259;49.972;19.850;2023-03-20T02:47:19;98730;;;4.4;72.6
51195;BME280;37259;49.972;19.850;2023-03-20T02:48:20;98730;;;4.4;72.6
51195;BME280;37259;49.972;19.850;2023-03-20T02:49:20;98730;;;4.4;72.5
51195;BME280;37259;49.972;19.850;2023-03-20T02:50:19;98730;;;4.4;72.5
51195;BME280;37259;49.972;19.850;2023-03-20T02:51:18;98730;;;4.4;72.5
51195;BME280;37259;49.972;19.850;2023-03-20T02:52:19;98730;;;4.4;72.5
51195;BME280;37259;49.972;19.850;2023-03-20T02:53:19;98720;;;4.4;72.3
51195;BME280;37259;49.972;19.850;2023-03-20T02:54:19;98720;;;4.4;72.2
51195;BME280;37259;49.972;19.850;2023-03-20T02:55:19;98720;;;4.4;72.2
51195;BME280;37259;49.972;19.850;2023-03-20T02:56:20;98720;;;4.4;72.1
51195;BME280;37259;49.972;19.850;2023-03-20T02:57:18;98720;;;4.4;72.1
51195;BME280;37259;49.972;19.850;2023-03-20T02:58:19;98720;;;4.5;72
51195;BME280;37259;49.972;19.850;2023-03-20T02:59:19;98720;;;4.5;72
51195;BME280;37259;49.972;19.850;2023-03-20T03:00:21;98720;;;4.5;71.9
51195;BME280;37259;49.972;19.850;2023-03-20T03:01:19;98710;;;4.5;71.8
51195;BME280;37259;49.972;19.850;2023-03-20T03:02:19;98710;;;4.5;71.7
51195;BME280;37259;49.972;19.850;2023-03-20T03:03:19;98710;;;4.5;71.7
51195;BME280;37259;49.972;19.850;2023-03-20T03:04:18;98710;;;4.5;71.6
51195;BME280;37259;49.972;19.850;2023-03-20T03:05:20;98710;;;4.5;71.6
51195;BME280;37259;49.972;19.850;2023-03-20T03:06:19;98720;;;4.5;71.7
51195;BME280;37259;49.972;19.850;2023-03-20T03:07:18;98720;;;4.5;71.7
51195;BME280;37259;49.972;19.850;2023-03-20T03:08:18;98710;;;4.5;71.8
51195;BME280;37259;49.972;19.850;2023-03-20T03:09:20;98710;;;4.5;71.8
51195;BME280;37259;49.972;19.850;2023-03-20T03:10:18;98710;;;4.5;71.7
51195;BME280;37259;49.972;19.850;2023-03-20T03:11:18;98710;;;4.5;71.7
51195;BME280;37259;49.972;19.850;2023-03-20T03:12:18;98710;;;4.5;71.7
51195;BME280;37259;49.972;19.850;2023-03-20T03:13:19;98710;;;4.5;71.8
51195;BME280;37259;49.972;19.850;2023-03-20T03:14:20;98710;;;4.5;71.9
51195;BME280;37259;49.972;19.850;2023-03-20T03:15:18;98710;;;4.5;72
51195;BME280;37259;49.972;19.850;2023-03-20T03:16:18;98710;;;4.5;72
51195;BME280;37259;49.972;19.850;2023-03-20T03:17:19;98710;;;4.5;72.1
51195;BME280;37259;49.972;19.850;2023-03-20T03:18:19;98710;;;4.5;72.1
51195;BME280;37259;49.972;19.850;2023-03-20T03:19:18;98710;;;4.4;72.2
51195;BME280;37259;49.972;19.850;2023-03-20T03:20:19;98710;;;4.4;72.2
51195;BME280;37259;49.972;19.850;2023-03-20T03:21:18;98710;;;4.4;72.4
51195;BME280;37259;49.972;19.850;2023-03-20T03:22:18;98710;;;4.4;72.4
51195;BME280;37259;49.972;19.850;2023-03-20T03:23:21;98710;;;4.4;72.4
51195;BME280;37259;49.972;19.850;2023-03-20T03:24:20;98710;;;4.4;72.4
51195;BME280;37259;49.972;19.850;2023-03-20T03:25:18;98710;;;4.4;72.4
51195;BME280;37259;49.972;19.850;2023-03-20T03:26:18;98710;;;4.4;72.4
51195;BME280;37259;49.972;19.850;2023-03-20T03:27:18;98710;;;4.4;72.4
51195;BME280;37259;49.972;19.850;2023-03-20T03:28:20;98710;;;4.4;72.4
51195;BME280;37259;49.972;19.850;2023-03-20T03:29:18;98710;;;4.4;72.4
51195;BME280;37259;49.972;19.850;2023-03-20T03:30:19;98710;;;4.4;72.5
51195;BME280;37259;49.972;19.850;2023-03-20T03:31:18;98710;;;4.4;72.5
51195;BME280;37259;49.972;19.850;2023-03-20T03:32:20;98710;;;4.4;72.5
51195;BME280;37259;49.972;19.850;2023-03-20T03:33:18;98710;;;4.4;72.5
51195;BME280;37259;49.972;19.850;2023-03-20T03:34:18;98710;;;4.4;72.5
51195;BME280;37259;49.972;19.850;2023-03-20T03:35:19;98710;;;4.4;72.5
51195;BME280;37259;49.972;19.850;2023-03-20T03:36:21;98710;;;4.4;72.6
51195;BME280;37259;49.972;19.850;2023-03-20T03:37:20;98710;;;4.4;72.6
51195;BME280;37259;49.972;19.850;2023-03-20T03:38:23;98710;;;4.3;72.6
51195;BME280;37259;49.972;19.850;2023-03-20T03:39:19;98700;;;4.3;72.6
51195;BME280;37259;49.972;19.850;2023-03-20T03:40:19;98700;;;4.3;72.6
51195;BME280;37259;49.972;19.850;2023-03-20T03:41:19;98700;;;4.3;72.6
51195;BME280;37259;49.972;19.850;2023-03-20T03:42:19;98700;;;4.3;72.6
51195;BME280;37259;49.972;19.850;2023-03-20T03:43:19;98700;;;4.3;72.6
51195;BME280;37259;49.972;19.850;2023-03-20T03:44:19;98710;;;4.3;72.7
51195;BME280;37259;49.972;19.850;2023-03-20T03:45:20;98710;;;4.3;72.7
51195;BME280;37259;49.972;19.850;2023-03-20T03:46:18;98710;;;4.3;72.9
51195;BME280;37259;49.972;19.850;2023-03-20T03:47:18;98710;;;4.3;72.9
51195;BME280;37259;49.972;19.850;2023-03-20T03:48:19;98710;;;4.3;72.9
51195;BME280;37259;49.972;19.850;2023-03-20T03:49:19;98710;;;4.3;72.9
51195;BME280;37259;49.972;19.850;2023-03-20T03:50:19;98710;;;4.3;72.9
51195;BME280;37259;49.972;19.850;2023-03-20T03:51:19;98710;;;4.3;72.9
51195;BME280;37259;49.972;19.850;2023-03-20T03:52:19;98710;;;4.2;72.9
51195;BME280;37259;49.972;19.850;2023-03-20T03:53:19;98710;;;4.2;72.9
51195;BME280;37259;49.972;19.850;2023-03-20T03:54:19;98710;;;4.2;72.9
51195;BME280;37259;49.972;19.850;2023-03-20T03:55:18;98710;;;4.2;73
51195;BME280;37259;49.972;19.850;2023-03-20T03:56:19;98710;;;4.2;73
51195;BME280;37259;49.972;19.850;2023-03-20T03:57:19;98710;;;4.2;73
51195;BME280;37259;49.972;19.850;2023-03-20T03:58:18;98710;;;4.2;73
51195;BME280;37259;49.972;19.850;2023-03-20T03:59:19;98710;;;4.2;73
51195;BME280;37259;49.972;19.850;2023-03-20T04:00:18;98710;;;4.2;73.2
51195;BME280;37259;49.972;19.850;2023-03-20T04:01:18;98710;;;4.2;73.2
51195;BME280;37259;49.972;19.850;2023-03-20T04:02:18;98700;;;4.2;73.3
51195;BME280;37259;49.972;19.850;2023-03-20T04:03:18;98710;;;4.1;73.4
51195;BME280;37259;49.972;19.850;2023-03-20T04:04:18;98710;;;4.1;73.4
51195;BME280;37259;49.972;19.850;2023-03-20T04:05:18;98700;;;4.1;73.5
51195;BME280;37259;49.972;19.850;2023-03-20T04:06:18;98700;;;4.1;73.5
51195;BME280;37259;49.972;19.850;2023-03-20T04:07:18;98710;;;4.1;73.5
51195;BME280;37259;49.972;19.850;2023-03-20T04:08:18;98710;;;4.1;73.5
51195;BME280;37259;49.972;19.850;2023-03-20T04:09:18;98710;;;4;73.5
51195;BME280;37259;49.972;19.850;2023-03-20T04:10:18;98710;;;4;73.5
51195;BME280;37259;49.972;19.850;2023-03-20T04:11:19;98710;;;4;73.7
51195;BME280;37259;49.972;19.850;2023-03-20T04:12:26;98710;;;4;73.7
51195;BME280;37259;49.972;19.850;2023-03-20T04:13:18;98720;;;4;74
51195;BME280;37259;49.972;19.850;2023-03-20T04:14:18;98720;;;4;74.1
51195;BME280;37259;49.972;19.850;2023-03-20T04:15:18;98720;;;4;74.1
51195;BME280;37259;49.972;19.850;2023-03-20T04:16:19;98720;;;3.9;74.2
51195;BME280;37259;49.972;19.850;2023-03-20T04:17:18;98720;;;3.9;74.2
51195;BME280;37259;49.972;19.850;2023-03-20T04:18:18;98720;;;3.9;74.3
51195;BME280;37259;49.972;19.850;2023-03-20T04:19:18;98720;;;3.9;74.3
51195;BME280;37259;49.972;19.850;2023-03-20T04:20:18;98720;;;3.9;74.5
51195;BME280;37259;49.972;19.850;2023-03-20T04:21:18;98720;;;3.9;74.5
51195;BME280;37259;49.972;19.850;2023-03-20T04:22:18;98720;;;3.9;74.5
51195;BME280;37259;49.972;19.850;2023-03-20T04:23:18;98720;;;3.9;74.5
51195;BME280;37259;49.972;19.850;2023-03-20T04:24:18;98720;;;3.9;74.4
51195;BME280;37259;49.972;19.850;2023-03-20T04:25:18;98720;;;3.9;74.4
51195;BME280;37259;49.972;19.850;2023-03-20T04:26:18;98710;;;3.9;74.4
51195;BME280;37259;49.972;19.850;2023-03-20T04:27:18;98710;;;3.9;74.4
51195;BME280;37259;49.972;19.850;2023-03-20T04:28:18;98710;;;3.9;74.4
51195;BME280;37259;49.972;19.850;2023-03-20T04:29:18;98710;;;3.9;74.4
51195;BME280;37259;49.972;19.850;2023-03-20T04:30:18;98720;;;3.9;74.4
51195;BME280;37259;49.972;19.850;2023-03-20T04:31:18;98720;;;3.9;74.4
51195;BME280;37259;49.972;19.850;2023-03-20T04:32:18;98720;;;3.9;74.4
51195;BME280;37259;49.972;19.850;2023-03-20T04:33:18;98720;;;3.9;74.4
51195;BME280;37259;49.972;19.850;2023-03-20T04:34:18;98720;;;3.9;74.4
51195;BME280;37259;49.972;19.850;2023-03-20T04:35:18;98720;;;3.9;74.4
51195;BME280;37259;49.972;19.850;2023-03-20T04:36:18;98720;;;3.9;74.5
51195;BME280;37259;49.972;19.850;2023-03-20T04:37:18;98720;;;3.9;74.5
51195;BME280;37259;49.972;19.850;2023-03-20T04:38:18;98720;;;3.9;74.5
51195;BME280;37259;49.972;19.850;2023-03-20T04:39:18;98720;;;3.9;74.5
51195;BME280;37259;49.972;19.850;2023-03-20T04:40:18;98720;;;4;74.4
51195;BME280;37259;49.972;19.850;2023-03-20T04:41:18;98720;;;4;74.4
51195;BME280;37259;49.972;19.850;2023-03-20T04:42:18;98720;;;4;74.4
51195;BME280;37259;49.972;19.850;2023-03-20T04:43:18;98720;;;4;74.5
51195;BME280;37259;49.972;19.850;2023-03-20T04:44:18;98720;;;4;74.5
51195;BME280;37259;49.972;19.850;2023-03-20T04:45:18;98720;;;4;74.5
51195;BME280;37259;49.972;19.850;2023-03-20T04:46:18;98720;;;4;74.5
51195;BME280;37259;49.972;19.850;2023-03-20T04:47:18;98720;;;4;74.5
51195;BME280;37259;49.972;19.850;2023-03-20T04:48:18;98720;;;4;74.5
51195;BME280;37259;49.972;19.850;2023-03-20T04:49:18;98720;;;4;74.4
51195;BME280;37259;49.972;19.850;2023-03-20T04:50:18;98720;;;4;74.4
51195;BME280;37259;49.972;19.850;2023-03-20T04:51:18;98720;;;4;74.3
51195;BME280;37259;49.972;19.850;2023-03-20T04:52:18;98720;;;4;74.3
51195;BME280;37259;49.972;19.850;2023-03-20T04:53:18;98720;;;4;74.2
51195;BME280;37259;49.972;19.850;2023-03-20T04:54:18;98720;;;4;74.2
51195;BME280;37259;49.972;19.850;2023-03-20T04:55:18;98720;;;4;74.2
51195;BME280;37259;49.972;19.850;2023-03-20T04:56:18;98720;;;4;74.2
51195;BME280;37259;49.972;19.850;2023-03-20T04:57:18;98720;;;4.1;74.3
51195;BME280;37259;49.972;19.850;2023-03-20T04:58:18;98720;;;4.1;74.3
51195;BME280;37259;49.972;19.850;2023-03-20T04:59:18;98720;;;4.1;74.3
51195;BME280;37259;49.972;19.850;2023-03-20T05:00:18;98720;;;4.1;74.3
51195;BME280;37259;49.972;19.850;2023-03-20T05:01:18;98720;;;4.1;74.4
51195;BME280;37259;49.972;19.850;2023-03-20T05:02:18;98720;;;4.1;74.3
51195;BME280;37259;49.972;19.850;2023-03-20T05:03:18;98720;;;4.1;74.3
51195;BME280;37259;49.972;19.850;2023-03-20T05:04:18;98720;;;4.1;74.3
51195;BME280;37259;49.972;19.850;2023-03-20T05:05:18;98730;;;4.1;74.2
51195;BME280;37259;49.972;19.850;2023-03-20T05:06:18;98730;;;4.1;74.2
51195;BME280;37259;49.972;19.850;2023-03-20T05:07:18;98730;;;4.2;74.2
51195;BME280;37259;49.972;19.850;2023-03-20T05:08:18;98730;;;4.2;74.2
51195;BME280;37259;49.972;19.850;2023-03-20T05:09:18;98730;;;4.2;74.2
51195;BME280;37259;49.972;19.850;2023-03-20T05:10:18;98730;;;4.2;74.2
51195;BME280;37259;49.972;19.850;2023-03-20T05:11:18;98730;;;4.2;74.1
51195;BME280;37259;49.972;19.850;2023-03-20T05:12:18;98730;;;4.2;74.1
51195;BME280;37259;49.972;19.850;2023-03-20T05:13:18;98730;;;4.3;74
51195;BME280;37259;49.972;19.850;2023-03-20T05:14:18;98730;;;4.3;74
51195;BME280;37259;49.972;19.850;2023-03-20T05:15:18;98730;;;4.3;73.9
51195;BME280;37259;49.972;19.850;2023-03-20T05:16:18;98730;;;4.3;73.9
51195;BME280;37259;49.972;19.850;2023-03-20T05:17:18;98730;;;4.3;73.9
51195;BME280;37259;49.972;19.850;2023-03-20T05:18:18;98730;;;4.4;73.8
51195;BME280;37259;49.972;19.850;2023-03-20T05:19:18;98730;;;4.4;73.8
51195;BME280;37259;49.972;19.850;2023-03-20T05:20:18;98730;;;4.4;73.8
51195;BME280;37259;49.972;19.850;2023-03-20T05:21:18;98730;;;4.4;73.8
51195;BME280;37259;49.972;19.850;2023-03-20T05:22:18;98730;;;4.5;73.8
51195;BME280;37259;49.972;19.850;2023-03-20T05:23:18;98730;;;4.5;73.8
51195;BME280;37259;49.972;19.850;2023-03-20T05:24:18;98740;;;4.6;73.7
51195;BME280;37259;49.972;19.850;2023-03-20T05:25:18;98740;;;4.6;73.6
51195;BME280;37259;49.972;19.850;2023-03-20T05:26:18;98740;;;4.6;73.6
51195;BME280;37259;49.972;19.850;2023-03-20T05:27:18;98740;;;4.7;73.5
51195;BME280;37259;49.972;19.850;2023-03-20T05:28:18;98740;;;4.7;73.5
51195;BME280;37259;49.972;19.850;2023-03-20T05:29:18;98740;;;4.8;73.6
51195;BME280;37259;49.972;19.850;2023-03-20T05:30:18;98740;;;4.8;73.6
51195;BME280;37259;49.972;19.850;2023-03-20T05:31:18;98740;;;4.8;73.6
51195;BME280;37259;49.972;19.850;2023-03-20T05:32:18;98740;;;4.9;73.6
51195;BME280;37259;49.972;19.850;2023-03-20T05:33:18;98740;;;4.9;73.6
51195;BME280;37259;49.972;19.850;2023-03-20T05:34:18;98740;;;4.9;73.6
51195;BME280;37259;49.972;19.850;2023-03-20T05:35:18;98740;;;4.9;73.6
51195;BME280;37259;49.972;19.850;2023-03-20T05:36:18;98750;;;5;73.6
51195;BME280;37259;49.972;19.850;2023-03-20T05:37:18;98750;;;5;73.6
51195;BME280;37259;49.972;19.850;2023-03-20T05:38:18;98740;;;5;73.5
51195;BME280;37259;49.972;19.850;2023-03-20T05:39:18;98740;;;5;73.5
51195;BME280;37259;49.972;19.850;2023-03-20T05:40:18;98740;;;5;73.5
51195;BME280;37259;49.972;19.850;2023-03-20T05:41:18;98740;;;5.1;73.3
51195;BME280;37259;49.972;19.850;2023-03-20T05:42:18;98750;;;5.1;73.2
51195;BME280;37259;49.972;19.850;2023-03-20T05:43:18;98750;;;5.1;73.2
51195;BME280;37259;49.972;19.850;2023-03-20T05:44:18;98740;;;5.2;73